Time;durP1;ratioP1;P1;durP2;ratioP2;P2;SDS_P1;SDS_P2;PMS_P1;PMS_P2;Temp;Humidity;BMP_temperature;BMP_pressure;BME280_temperature;BME280_humidity;BME280_pressure;Samples;Min_cycle;Max_cycle;Signal;HPM_P1;HPM_P2
2022/07/11 00:00:15;;;;;;;;;;;10.60;99.90;;;;;;5014071;28;19909;-77
2022/07/11 00:02:42;;;;;;;;;;;10.60;99.90;;;;;;5013303;28;20359;-78
2022/07/11 00:05:09;;;;;;;;;;;10.60;99.90;;;;;;5013659;28;19928;-82
2022/07/11 00:07:37;;;;;;;;;;;10.70;99.90;;;;;;5014005;28;20000;-82
2022/07/11 00:10:04;;;;;;;;;;;10.80;99.90;;;;;;5014003;28;19917;-82
2022/07/11 00:12:31;;;;;;;;;;;10.70;99.90;;;;;;5013981;28;19909;-79
2022/07/11 00:14:57;;;;;;;;;;;10.70;99.90;;;;;;5013669;28;19963;-80
2022/07/11 00:17:24;;;;;;;;;;;10.80;99.90;;;;;;5013801;28;20001;-78
2022/07/11 00:19:51;;;;;;;;;;;10.80;99.90;;;;;;5013868;28;19917;-83
2022/07/11 00:22:18;;;;;;;;;;;10.80;99.90;;;;;;5013899;28;19916;-80
2022/07/11 00:24:45;;;;;;;;;;;10.80;99.90;;;;;;5013912;28;20363;-81
2022/07/11 00:27:12;;;;;;;;;;;10.80;99.90;;;;;;5013669;28;19909;-78
2022/07/11 00:29:39;;;;;;;;;;;10.80;99.90;;;;;;5013733;28;20004;-75
2022/07/11 00:32:06;;;;;;;;;;;10.70;99.90;;;;;;5013725;28;20051;-79
2022/07/11 00:34:32;;;;;;;;;;;10.70;99.90;;;;;;5013738;28;19910;-83
2022/07/11 00:36:59;;;;;;;;;;;10.80;99.90;;;;;;5013443;28;19936;-79
2022/07/11 00:39:26;;;;;;;;;;;10.80;99.90;;;;;;5013710;28;19910;-80
2022/07/11 00:41:52;;;;;;;;;;;10.70;99.90;;;;;;5013667;28;19918;-79
2022/07/11 00:44:19;;;;;;;;;;;10.80;99.90;;;;;;5013531;28;20295;-82
2022/07/11 00:46:46;;;;;;;;;;;10.80;99.90;;;;;;5012222;28;20418;-82
2022/07/11 00:49:13;;;;;;;;;;;10.80;99.90;;;;;;5013244;28;19953;-81
2022/07/11 00:51:40;;;;;;;;;;;10.80;99.90;;;;;;5013379;28;19911;-82
2022/07/11 00:54:08;;;;;;;;;;;10.90;99.90;;;;;;5013627;28;20026;-79
2022/07/11 00:56:35;;;;;;;;;;;11.00;99.90;;;;;;5013558;28;19956;-82
2022/07/11 00:59:02;;;;;;;;;;;10.90;99.90;;;;;;5013323;28;19909;-82
2022/07/11 01:01:28;;;;;;;;;;;10.90;99.90;;;;;;5013375;28;19910;-81
2022/07/11 01:03:55;;;;;;;;;;;11.00;99.90;;;;;;5013173;28;19914;-80
2022/07/11 01:06:22;;;;;;;;;;;11.00;99.90;;;;;;5013514;28;19925;-80
2022/07/11 01:08:48;;;;;;;;;;;11.20;99.90;;;;;;5013388;28;19910;-81
2022/07/11 01:11:15;;;;;;;;;;;11.40;99.90;;;;;;5013307;28;19972;-79
2022/07/11 01:13:43;;;;;;;;;;;11.50;99.90;;;;;;5013863;28;19909;-79
2022/07/11 01:16:17;;;;;;;;;;;11.50;99.90;;;;;;5017180;28;20434;-78
2022/07/11 01:18:48;;;;;;;;;;;11.60;99.90;;;;;;5017300;28;19910;-80
2022/07/11 01:21:21;;;;;;;;;;;11.90;99.90;;;;;;5017011;28;19964;-80
2022/07/11 01:23:48;;;;;;;;;;;11.90;99.90;;;;;;5017018;28;20367;-80
2022/07/11 01:26:16;;;;;;;;;;;12.10;99.90;;;;;;5017113;28;20241;-80
2022/07/11 01:28:43;;;;;;;;;;;12.30;99.90;;;;;;5016999;28;19920;-80
2022/07/11 01:31:10;;;;;;;;;;;12.40;99.90;;;;;;5016665;28;19932;-80
2022/07/11 01:33:37;;;;;;;;;;;12.50;99.90;;;;;;5016977;28;19956;-80
2022/07/11 01:36:04;;;;;;;;;;;12.50;99.90;;;;;;5016967;28;19917;-80
2022/07/11 01:38:30;;;;;;;;;;;12.40;99.90;;;;;;5016835;28;19910;-81
2022/07/11 01:40:57;;;;;;;;;;;12.50;99.90;;;;;;5016770;28;20004;-79
2022/07/11 01:43:24;;;;;;;;;;;12.40;99.90;;;;;;5016850;28;19909;-78
2022/07/11 01:45:52;;;;;;;;;;;12.50;99.90;;;;;;5016678;28;19909;-75
2022/07/11 01:48:19;;;;;;;;;;;12.50;99.90;;;;;;5016646;28;19910;-79
2022/07/11 01:50:46;;;;;;;;;;;12.50;99.90;;;;;;5016608;28;20382;-79
2022/07/11 01:53:13;;;;;;;;;;;12.50;99.90;;;;;;5016567;28;19909;-79
2022/07/11 01:55:40;;;;;;;;;;;12.50;99.90;;;;;;5016701;28;19909;-78
2022/07/11 01:58:07;;;;;;;;;;;12.40;99.90;;;;;;5016581;28;19909;-75
2022/07/11 02:00:33;;;;;;;;;;;12.40;99.90;;;;;;5016423;28;19916;-76
2022/07/11 02:03:00;;;;;;;;;;;12.40;99.90;;;;;;5016037;28;20358;-77
2022/07/11 02:05:27;;;;;;;;;;;12.40;99.90;;;;;;5016309;28;20012;-79
2022/07/11 02:08:12;;;;;;;;;;;12.20;99.90;;;;;;5016401;28;20356;-74
2022/07/11 02:10:43;;;;;;;;;;;12.30;99.90;;;;;;5016192;28;20371;-75
2022/07/11 02:13:10;;;;;;;;;;;12.20;99.90;;;;;;5015974;28;20010;-77
2022/07/11 02:15:38;;;;;;;;;;;12.00;99.90;;;;;;5016278;28;19909;-78
2022/07/11 02:18:05;;;;;;;;;;;11.90;99.90;;;;;;5015898;28;19910;-74
2022/07/11 02:20:32;;;;;;;;;;;11.90;99.90;;;;;;5016166;28;19945;-77
2022/07/11 02:23:00;;;;;;;;;;;11.90;99.90;;;;;;5015802;28;20004;-74
2022/07/11 02:25:27;;;;;;;;;;;11.90;99.90;;;;;;5015806;28;19909;-79
2022/07/11 02:27:54;;;;;;;;;;;12.00;99.90;;;;;;5016161;28;19920;-75
2022/07/11 02:30:20;;;;;;;;;;;12.00;99.90;;;;;;5015923;28;20287;-78
2022/07/11 02:32:48;;;;;;;;;;;12.10;99.90;;;;;;5015949;28;19910;-79
2022/07/11 02:35:14;;;;;;;;;;;12.10;99.90;;;;;;5015933;28;19916;-80
2022/07/11 02:37:41;;;;;;;;;;;12.10;99.90;;;;;;5017483;28;19910;-79
2022/07/11 02:40:08;;;;;;;;;;;12.10;99.90;;;;;;5016185;28;19916;-80
2022/07/11 02:42:35;;;;;;;;;;;12.10;99.90;;;;;;5015888;28;20024;-81
2022/07/11 02:45:02;;;;;;;;;;;12.10;99.90;;;;;;5015493;28;19999;-80
2022/07/11 02:47:28;;;;;;;;;;;12.10;99.90;;;;;;5015464;28;19910;-80
2022/07/11 02:49:55;;;;;;;;;;;12.10;99.90;;;;;;5015483;28;19918;-81
2022/07/11 02:52:22;;;;;;;;;;;12.10;99.90;;;;;;5015379;28;19913;-81
2022/07/11 02:54:48;;;;;;;;;;;12.00;99.90;;;;;;5015513;28;20347;-80
2022/07/11 02:57:15;;;;;;;;;;;12.10;99.90;;;;;;5015301;28;19920;-80
2022/07/11 02:59:42;;;;;;;;;;;12.20;99.90;;;;;;5015442;28;20260;-81
2022/07/11 03:02:08;;;;;;;;;;;12.20;99.90;;;;;;5015199;28;19936;-80
2022/07/11 03:04:35;;;;;;;;;;;12.30;99.90;;;;;;5030183;28;19928;-81
2022/07/11 03:07:02;;;;;;;;;;;12.30;99.90;;;;;;5013969;28;20395;-78
2022/07/11 03:09:28;;;;;;;;;;;12.20;99.90;;;;;;5014912;28;19917;-81
2022/07/11 03:11:55;;;;;;;;;;;12.20;99.90;;;;;;5015115;28;19969;-82
2022/07/11 03:14:22;;;;;;;;;;;12.20;99.90;;;;;;5014925;28;19913;-81
2022/07/11 03:16:48;;;;;;;;;;;12.20;99.90;;;;;;5015029;28;20326;-81
2022/07/11 03:19:15;;;;;;;;;;;12.30;99.90;;;;;;5014812;28;19917;-81
2022/07/11 03:21:42;;;;;;;;;;;12.40;99.90;;;;;;5014842;28;20363;-82
2022/07/11 03:24:09;;;;;;;;;;;12.40;99.90;;;;;;5015092;28;19910;-81
2022/07/11 03:26:35;;;;;;;;;;;12.50;99.90;;;;;;5014961;28;19909;-82
2022/07/11 03:29:02;;;;;;;;;;;12.50;99.90;;;;;;5014550;28;19914;-82
2022/07/11 03:31:29;;;;;;;;;;;12.50;99.90;;;;;;5014621;28;19937;-82
2022/07/11 03:33:56;;;;;;;;;;;12.50;99.90;;;;;;5014812;28;19910;-81
2022/07/11 03:36:22;;;;;;;;;;;12.70;99.90;;;;;;5014022;28;19921;-81
2022/07/11 03:38:49;;;;;;;;;;;12.60;99.90;;;;;;5014785;28;19945;-82
2022/07/11 03:41:16;;;;;;;;;;;12.70;99.90;;;;;;5014640;28;19960;-81
2022/07/11 03:43:43;;;;;;;;;;;12.80;99.90;;;;;;5014542;28;20256;-81
2022/07/11 03:46:09;;;;;;;;;;;12.60;99.90;;;;;;5014754;28;19916;-81
2022/07/11 03:48:36;;;;;;;;;;;12.40;99.90;;;;;;5014416;28;19909;-79
2022/07/11 03:51:03;;;;;;;;;;;12.50;99.90;;;;;;5014308;28;19964;-78
2022/07/11 03:53:29;;;;;;;;;;;12.40;99.90;;;;;;5014558;28;19909;-79
2022/07/11 03:55:56;;;;;;;;;;;12.40;99.90;;;;;;5014305;28;19909;-80
2022/07/11 03:58:23;;;;;;;;;;;12.30;99.90;;;;;;5014457;28;19909;-81
2022/07/11 04:00:50;;;;;;;;;;;12.30;99.90;;;;;;5014361;28;19916;-81
2022/07/11 04:03:16;;;;;;;;;;;12.30;99.90;;;;;;5014457;28;19956;-80
2022/07/11 04:05:43;;;;;;;;;;;12.20;99.90;;;;;;5014045;28;20298;-79
2022/07/11 04:08:10;;;;;;;;;;;12.30;99.90;;;;;;5014103;28;19909;-78
2022/07/11 04:10:36;;;;;;;;;;;12.30;99.90;;;;;;5014067;28;19918;-78
2022/07/11 04:13:04;;;;;;;;;;;12.30;99.90;;;;;;5013784;28;19910;-79
2022/07/11 04:15:30;;;;;;;;;;;12.30;99.90;;;;;;5014007;28;19909;-79
2022/07/11 04:17:57;;;;;;;;;;;12.30;99.90;;;;;;5014072;28;19960;-80
2022/07/11 04:20:24;;;;;;;;;;;12.40;99.90;;;;;;5014079;28;19910;-79
2022/07/11 04:22:50;;;;;;;;;;;12.50;99.90;;;;;;5013904;28;19913;-80
2022/07/11 04:25:17;;;;;;;;;;;12.50;99.90;;;;;;5013914;28;20375;-79
2022/07/11 04:27:44;;;;;;;;;;;12.50;99.90;;;;;;5013884;28;19916;-80
2022/07/11 04:30:11;;;;;;;;;;;12.50;99.90;;;;;;5013596;28;19980;-80
2022/07/11 04:32:37;;;;;;;;;;;12.60;99.90;;;;;;5013837;28;20359;-80
2022/07/11 04:35:04;;;;;;;;;;;12.60;99.90;;;;;;5013612;28;19916;-79
2022/07/11 04:37:31;;;;;;;;;;;12.60;99.90;;;;;;5013766;28;19910;-79
2022/07/11 04:39:58;;;;;;;;;;;12.60;99.90;;;;;;5013628;28;19917;-80
2022/07/11 04:42:24;;;;;;;;;;;12.60;99.90;;;;;;5013619;28;20374;-78
2022/07/11 04:44:51;;;;;;;;;;;12.50;99.90;;;;;;5012062;28;20376;-75
2022/07/11 04:47:19;;;;;;;;;;;12.60;99.90;;;;;;5013626;28;19972;-79
2022/07/11 04:49:46;;;;;;;;;;;12.60;99.90;;;;;;5013469;28;19917;-81
2022/07/11 04:52:13;;;;;;;;;;;12.60;99.90;;;;;;5013602;28;19913;-79
2022/07/11 04:54:40;;;;;;;;;;;12.60;99.90;;;;;;5013511;28;19910;-81
2022/07/11 04:57:07;;;;;;;;;;;12.60;99.90;;;;;;5011711;28;19910;-80
2022/07/11 04:59:34;;;;;;;;;;;12.50;99.90;;;;;;5012824;28;20294;-79
2022/07/11 05:02:00;;;;;;;;;;;12.60;99.90;;;;;;5012075;28;20005;-79
2022/07/11 05:04:27;;;;;;;;;;;12.60;99.90;;;;;;5013193;28;20397;-81
2022/07/11 05:06:54;;;;;;;;;;;12.60;99.90;;;;;;5013167;28;19917;-79
2022/07/11 05:09:21;;;;;;;;;;;12.50;99.90;;;;;;5013355;28;19921;-79
2022/07/11 05:11:47;;;;;;;;;;;12.50;99.90;;;;;;5013664;28;20007;-79
2022/07/11 05:14:14;;;;;;;;;;;12.40;99.90;;;;;;5013510;28;19910;-80
2022/07/11 05:16:41;;;;;;;;;;;12.40;99.90;;;;;;5013112;28;19917;-79
2022/07/11 05:19:08;;;;;;;;;;;12.40;99.90;;;;;;5013327;28;20382;-79
2022/07/11 05:21:34;;;;;;;;;;;12.30;99.90;;;;;;5013417;28;20385;-79
2022/07/11 05:24:02;;;;;;;;;;;12.40;99.90;;;;;;5013328;28;19910;-79
2022/07/11 05:26:28;;;;;;;;;;;12.30;99.90;;;;;;5013256;28;19913;-80
2022/07/11 05:28:55;;;;;;;;;;;12.30;99.90;;;;;;5013131;28;19932;-77
2022/07/11 05:31:22;;;;;;;;;;;12.30;99.90;;;;;;5013181;28;19965;-78
2022/07/11 05:33:49;;;;;;;;;;;12.30;99.90;;;;;;5013399;28;19917;-78
2022/07/11 05:36:15;;;;;;;;;;;12.30;99.90;;;;;;5013307;28;19910;-77
2022/07/11 05:38:42;;;;;;;;;;;12.30;99.90;;;;;;5013299;28;19921;-78
2022/07/11 05:41:09;;;;;;;;;;;12.40;99.90;;;;;;5012986;28;19909;-79
2022/07/11 05:43:36;;;;;;;;;;;12.40;99.90;;;;;;5013187;28;19910;-79
2022/07/11 05:46:06;;;;;;;;;;;12.40;99.90;;;;;;5013028;28;19933;-79
2022/07/11 05:48:33;;;;;;;;;;;12.40;99.90;;;;;;5013154;28;20026;-79
2022/07/11 05:50:59;;;;;;;;;;;12.40;99.90;;;;;;5012918;28;19917;-78
2022/07/11 05:53:26;;;;;;;;;;;12.30;99.90;;;;;;5013123;28;19917;-79
2022/07/11 05:55:53;;;;;;;;;;;12.40;99.90;;;;;;5011712;28;19909;-78
2022/07/11 05:58:21;;;;;;;;;;;12.40;99.90;;;;;;5012814;28;19910;-78
2022/07/11 06:00:47;;;;;;;;;;;12.40;99.90;;;;;;5014633;28;20286;-76
2022/07/11 06:03:14;;;;;;;;;;;12.40;99.90;;;;;;5016288;28;19909;-80
2022/07/11 06:05:41;;;;;;;;;;;12.40;99.90;;;;;;5016240;28;19922;-80
2022/07/11 06:10:52;;;;;;;;;;;12.40;99.90;;;;;;5016163;28;20011;-78
2022/07/11 06:13:19;;;;;;;;;;;12.40;99.90;;;;;;5016273;28;19910;-75
2022/07/11 06:15:47;;;;;;;;;;;12.50;99.90;;;;;;5016073;28;19983;-78
2022/07/11 06:18:13;;;;;;;;;;;12.50;99.90;;;;;;5016350;28;20291;-77
2022/07/11 06:20:40;;;;;;;;;;;12.50;99.90;;;;;;5016145;28;19909;-79
2022/07/11 06:23:07;;;;;;;;;;;12.50;99.90;;;;;;5015907;28;19917;-81
2022/07/11 06:25:33;;;;;;;;;;;12.40;99.90;;;;;;5016119;28;19909;-81
2022/07/11 06:28:01;;;;;;;;;;;12.40;99.90;;;;;;5016222;28;19909;-80
2022/07/11 06:30:28;;;;;;;;;;;12.40;99.90;;;;;;5014580;28;20367;-81
2022/07/11 06:32:54;;;;;;;;;;;12.30;99.90;;;;;;5015749;28;19933;-80
2022/07/11 06:35:22;;;;;;;;;;;12.30;99.90;;;;;;5015938;28;20279;-79
2022/07/11 06:37:49;;;;;;;;;;;12.30;99.90;;;;;;5015894;28;19910;-79
2022/07/11 06:40:17;;;;;;;;;;;12.30;99.90;;;;;;5015780;28;19909;-76
2022/07/11 06:42:44;;;;;;;;;;;12.30;99.90;;;;;;5015693;28;19910;-79
2022/07/11 06:45:11;;;;;;;;;;;12.30;99.90;;;;;;5015432;28;20000;-80
2022/07/11 06:47:38;;;;;;;;;;;12.20;99.90;;;;;;5015917;28;19932;-77
2022/07/11 06:50:05;;;;;;;;;;;12.20;99.90;;;;;;5015603;28;20356;-79
2022/07/11 06:52:31;;;;;;;;;;;12.30;99.90;;;;;;5015406;28;19909;-78
2022/07/11 06:54:58;;;;;;;;;;;12.30;99.90;;;;;;5015452;28;19909;-79
2022/07/11 06:57:25;;;;;;;;;;;12.20;99.90;;;;;;5015551;28;19910;-79
2022/07/11 06:59:51;;;;;;;;;;;12.20;99.90;;;;;;5015305;28;19917;-78
2022/07/11 07:02:18;;;;;;;;;;;12.20;99.90;;;;;;5015545;28;20372;-79
2022/07/11 07:04:45;;;;;;;;;;;12.20;99.90;;;;;;5015317;28;19921;-79
2022/07/11 07:07:11;;;;;;;;;;;12.20;99.90;;;;;;5015132;28;20000;-78
2022/07/11 07:09:38;;;;;;;;;;;12.10;99.90;;;;;;5015068;28;19913;-80
2022/07/11 07:12:05;;;;;;;;;;;12.20;99.90;;;;;;5013890;28;20422;-79
2022/07/11 07:14:32;;;;;;;;;;;12.10;99.90;;;;;;5015051;28;19914;-79
2022/07/11 07:17:02;;;;;;;;;;;12.10;99.90;;;;;;5014040;28;20155;-78
2022/07/11 07:19:29;;;;;;;;;;;12.10;99.90;;;;;;5015021;28;19916;-79
2022/07/11 07:21:56;;;;;;;;;;;12.10;99.90;;;;;;5014960;28;20370;-77
2022/07/11 07:24:22;;;;;;;;;;;12.10;99.90;;;;;;5014927;28;19960;-77
2022/07/11 07:26:49;;;;;;;;;;;12.10;99.90;;;;;;5014892;28;19916;-77
2022/07/11 07:29:16;;;;;;;;;;;12.10;99.90;;;;;;5014606;28;20428;-78
2022/07/11 07:31:43;;;;;;;;;;;12.00;99.90;;;;;;5014769;28;20016;-78
2022/07/11 07:34:09;;;;;;;;;;;12.00;99.90;;;;;;5014649;28;20282;-78
2022/07/11 07:36:37;;;;;;;;;;;12.10;99.90;;;;;;5013359;28;20000;-78
2022/07/11 07:39:03;;;;;;;;;;;12.00;99.90;;;;;;5014453;28;19916;-77
2022/07/11 07:41:30;;;;;;;;;;;12.00;99.90;;;;;;5012330;28;20004;-78
2022/07/11 07:43:57;;;;;;;;;;;12.00;99.90;;;;;;5014363;28;20047;-76
2022/07/11 07:46:24;;;;;;;;;;;12.00;99.90;;;;;;5013049;28;19910;-77
2022/07/11 07:48:50;;;;;;;;;;;12.00;99.90;;;;;;5014312;28;19956;-76
2022/07/11 07:51:17;;;;;;;;;;;12.00;99.90;;;;;;5013598;28;19917;-78
2022/07/11 07:53:44;;;;;;;;;;;12.00;99.90;;;;;;5013877;28;19999;-77
2022/07/11 07:56:10;;;;;;;;;;;12.00;99.90;;;;;;5014167;28;19925;-76
2022/07/11 07:58:38;;;;;;;;;;;12.00;99.90;;;;;;5014222;28;19955;-75
2022/07/11 08:03:50;;;;;;;;;;;12.00;99.90;;;;;;5013982;28;19920;-76
2022/07/11 08:06:17;;;;;;;;;;;12.00;99.90;;;;;;5013730;28;20502;-75
2022/07/11 08:08:44;;;;;;;;;;;12.00;99.90;;;;;;5014026;28;20410;-77
2022/07/11 08:11:11;;;;;;;;;;;12.00;99.90;;;;;;5013765;28;19924;-77
2022/07/11 08:13:38;;;;;;;;;;;12.00;99.90;;;;;;5029199;28;19910;-78
2022/07/11 08:16:06;;;;;;;;;;;12.00;99.90;;;;;;5013805;28;19909;-75
2022/07/11 08:18:36;;;;;;;;;;;12.00;99.90;;;;;;5013755;28;20395;-76
2022/07/11 08:21:03;;;;;;;;;;;11.90;99.90;;;;;;5013056;28;19915;-77
2022/07/11 08:23:30;;;;;;;;;;;11.90;99.90;;;;;;5013477;28;19916;-77
2022/07/11 08:25:57;;;;;;;;;;;11.90;99.90;;;;;;5013832;28;19909;-78
2022/07/11 08:28:24;;;;;;;;;;;11.90;99.90;;;;;;5013750;28;20256;-77
2022/07/11 08:30:50;;;;;;;;;;;11.90;99.90;;;;;;5013447;28;19918;-76
2022/07/11 08:33:17;;;;;;;;;;;11.90;99.90;;;;;;5013783;28;19909;-75
2022/07/11 08:35:44;;;;;;;;;;;11.80;99.90;;;;;;5013230;28;19909;-75
2022/07/11 08:38:11;;;;;;;;;;;11.80;99.90;;;;;;5013695;28;19909;-77
2022/07/11 08:40:40;;;;;;;;;;;11.90;99.90;;;;;;5013560;28;19910;-76
2022/07/11 08:43:17;;;;;;;;;;;11.90;99.90;;;;;;5013416;28;19910;-77
2022/07/11 08:45:44;;;;;;;;;;;11.90;99.90;;;;;;5013358;28;19917;-75
2022/07/11 08:48:17;;;;;;;;;;;11.90;99.90;;;;;;5013780;28;19967;-73
2022/07/11 08:50:43;;;;;;;;;;;11.90;99.90;;;;;;5013390;28;20287;-77
2022/07/11 08:53:10;;;;;;;;;;;11.90;99.90;;;;;;5013706;28;19909;-75
2022/07/11 08:55:37;;;;;;;;;;;11.90;99.90;;;;;;5013599;28;20265;-77
2022/07/11 08:58:04;;;;;;;;;;;11.80;99.90;;;;;;5013421;28;19957;-74
2022/07/11 09:00:31;;;;;;;;;;;11.80;99.90;;;;;;5013365;28;19910;-77
2022/07/11 09:02:58;;;;;;;;;;;11.80;99.90;;;;;;5013182;28;19916;-76
2022/07/11 09:05:25;;;;;;;;;;;11.80;99.90;;;;;;5012867;28;19921;-77
2022/07/11 09:07:51;;;;;;;;;;;11.90;99.90;;;;;;5013467;28;19910;-77
2022/07/11 09:10:18;;;;;;;;;;;11.90;99.90;;;;;;5013386;28;20374;-76
2022/07/11 09:13:04;;;;;;;;;;;11.90;99.90;;;;;;5013449;28;20418;-77
2022/07/11 09:15:51;;;;;;;;;;;12.00;99.90;;;;;;5013166;28;19916;-77
2022/07/11 09:18:27;;;;;;;;;;;12.10;99.90;;;;;;5012972;28;19992;-75
2022/07/11 09:26:33;;;;;;;;;;;12.10;99.90;;;;;;5013117;28;19917;-75
2022/07/11 09:29:03;;;;;;;;;;;12.10;99.90;;;;;;5012646;28;19917;-77
2022/07/11 09:31:31;;;;;;;;;;;12.00;99.90;;;;;;5012956;28;19957;-75
2022/07/11 09:34:01;;;;;;;;;;;12.00;99.90;;;;;;5013232;28;19909;-77
2022/07/11 09:36:38;;;;;;;;;;;12.00;99.90;;;;;;5015926;28;19996;-75
2022/07/11 09:39:05;;;;;;;;;;;12.00;99.90;;;;;;5016640;28;19948;-77
2022/07/11 09:41:33;;;;;;;;;;;11.90;99.90;;;;;;5016609;28;19917;-77
2022/07/11 09:44:14;;;;;;;;;;;11.90;99.90;;;;;;5016556;28;19909;-77
2022/07/11 09:46:42;;;;;;;;;;;11.90;99.90;;;;;;5016836;28;19916;-77
2022/07/11 09:49:09;;;;;;;;;;;11.90;99.90;;;;;;5016334;28;19910;-76
2022/07/11 09:51:37;;;;;;;;;;;11.80;99.90;;;;;;5016125;28;19914;-76
2022/07/11 09:54:07;;;;;;;;;;;11.80;99.90;;;;;;5016470;28;19910;-77
2022/07/11 09:56:39;;;;;;;;;;;11.80;99.90;;;;;;5016565;28;19916;-75
2022/07/11 09:59:06;;;;;;;;;;;11.70;99.90;;;;;;5016215;28;20280;-73
2022/07/11 10:01:33;;;;;;;;;;;11.70;99.90;;;;;;5016497;28;19964;-74
2022/07/11 10:04:00;;;;;;;;;;;11.70;99.90;;;;;;4998757;28;19917;-74
2022/07/11 10:06:27;;;;;;;;;;;11.60;99.90;;;;;;5015663;28;20386;-76
2022/07/11 10:08:54;;;;;;;;;;;11.60;99.90;;;;;;5016234;28;19996;-74
2022/07/11 10:11:21;;;;;;;;;;;11.60;99.90;;;;;;5016283;28;19925;-76
2022/07/11 10:13:48;;;;;;;;;;;11.50;99.90;;;;;;5016225;28;19917;-73
2022/07/11 10:16:21;;;;;;;;;;;11.50;99.90;;;;;;5016127;28;20012;-76
2022/07/11 10:19:04;;;;;;;;;;;11.50;99.90;;;;;;5016218;28;19910;-74
2022/07/11 10:21:35;;;;;;;;;;;11.50;99.90;;;;;;5016216;28;19910;-74
2022/07/11 10:24:16;;;;;;;;;;;11.60;99.90;;;;;;5016124;28;19910;-76
2022/07/11 10:26:52;;;;;;;;;;;11.50;99.90;;;;;;5014127;28;20224;-77
2022/07/11 10:29:23;;;;;;;;;;;11.60;99.90;;;;;;5013696;28;19916;-78
2022/07/11 10:32:09;;;;;;;;;;;11.60;99.90;;;;;;5011822;28;20291;-77
2022/07/11 10:34:35;;;;;;;;;;;11.60;99.90;;;;;;5013619;28;20374;-77
2022/07/11 10:37:04;;;;;;;;;;;11.60;99.90;;;;;;5013499;28;19914;-78
2022/07/11 10:39:32;;;;;;;;;;;11.50;99.90;;;;;;5013529;28;19910;-76
2022/07/11 10:42:00;;;;;;;;;;;11.60;99.90;;;;;;5013501;28;20387;-77
2022/07/11 10:44:28;;;;;;;;;;;11.60;99.90;;;;;;5012663;28;19985;-76
2022/07/11 10:46:55;;;;;;;;;;;11.60;99.90;;;;;;5013139;28;19964;-76
2022/07/11 10:49:30;;;;;;;;;;;11.60;99.90;;;;;;5013417;28;20000;-75
2022/07/11 10:52:02;;;;;;;;;;;11.60;99.90;;;;;;5013406;28;19913;-76
2022/07/11 10:54:39;;;;;;;;;;;11.70;99.90;;;;;;5013205;28;19977;-77
2022/07/11 10:57:13;;;;;;;;;;;11.70;99.90;;;;;;5012811;28;19955;-76
2022/07/11 10:59:58;;;;;;;;;;;11.70;99.90;;;;;;5012568;28;20052;-77
2022/07/11 11:02:25;;;;;;;;;;;11.70;99.90;;;;;;5013035;28;19909;-75
2022/07/11 11:05:00;;;;;;;;;;;11.70;99.90;;;;;;5012760;28;19925;-76
2022/07/11 11:07:36;;;;;;;;;;;11.70;99.90;;;;;;5012960;28;19952;-76
2022/07/11 11:10:07;;;;;;;;;;;11.70;99.90;;;;;;5012804;28;20379;-75
2022/07/11 11:12:52;;;;;;;;;;;11.70;99.90;;;;;;5012856;28;20314;-75
2022/07/11 11:15:35;;;;;;;;;;;11.70;99.90;;;;;;5011413;28;19915;-75
2022/07/11 11:18:28;;;;;;;;;;;11.60;99.90;;;;;;5012825;28;20004;-74
2022/07/11 11:21:05;;;;;;;;;;;11.60;99.90;;;;;;5011393;28;19996;-74
2022/07/11 11:23:35;;;;;;;;;;;11.60;99.90;;;;;;5012417;28;19916;-75
2022/07/11 11:26:10;;;;;;;;;;;11.60;99.90;;;;;;5012759;28;20035;-76
2022/07/11 11:28:37;;;;;;;;;;;11.60;99.90;;;;;;5012387;28;19917;-77
2022/07/11 11:31:05;;;;;;;;;;;11.60;99.90;;;;;;4994226;28;20338;-76
2022/07/11 11:33:33;;;;;;;;;;;11.60;99.90;;;;;;5012590;28;20415;-78
2022/07/11 11:36:05;;;;;;;;;;;11.60;99.90;;;;;;5012123;28;20275;-76
2022/07/11 11:38:36;;;;;;;;;;;11.70;99.90;;;;;;5012450;28;19910;-77
2022/07/11 11:41:05;;;;;;;;;;;11.70;99.90;;;;;;5012290;28;20250;-78
2022/07/11 11:43:32;;;;;;;;;;;11.70;99.90;;;;;;5012297;28;19916;-75
2022/07/11 11:45:59;;;;;;;;;;;11.70;99.90;;;;;;5011926;28;19910;-74
2022/07/11 11:48:33;;;;;;;;;;;11.70;99.90;;;;;;4994265;28;20280;-75
2022/07/11 11:51:07;;;;;;;;;;;11.70;99.90;;;;;;5011942;28;19921;-77
2022/07/11 11:53:40;;;;;;;;;;;11.70;99.90;;;;;;5013845;28;20346;-75
2022/07/11 11:56:23;;;;;;;;;;;11.70;99.90;;;;;;4996668;28;20284;-77
2022/07/11 11:58:50;;;;;;;;;;;11.70;99.90;;;;;;5013666;28;19913;-77
2022/07/11 12:01:21;;;;;;;;;;;11.70;99.90;;;;;;5013790;28;20356;-75
2022/07/11 12:03:48;;;;;;;;;;;11.70;99.90;;;;;;5014160;28;20391;-76
2022/07/11 12:06:15;;;;;;;;;;;11.60;99.90;;;;;;5014110;28;19910;-74
2022/07/11 12:08:42;;;;;;;;;;;11.60;99.90;;;;;;5014271;28;20279;-78
2022/07/11 12:11:14;;;;;;;;;;;11.50;99.90;;;;;;5013940;28;19924;-77
2022/07/11 12:13:41;;;;;;;;;;;11.50;99.90;;;;;;5013953;28;19916;-77
2022/07/11 12:19:03;;;;;;;;;;;11.40;99.90;;;;;;5014168;28;19921;-77
2022/07/11 12:21:30;;;;;;;;;;;11.30;99.90;;;;;;5014074;28;19909;-76
2022/07/11 12:24:01;;;;;;;;;;;11.30;99.90;;;;;;5014052;28;19910;-74
2022/07/11 12:26:33;;;;;;;;;;;11.30;99.90;;;;;;5013877;28;20393;-75
2022/07/11 12:29:13;;;;;;;;;;;11.30;99.90;;;;;;5012934;28;19914;-77
2022/07/11 12:31:46;;;;;;;;;;;11.30;99.90;;;;;;5013904;28;19973;-76
2022/07/11 12:34:13;;;;;;;;;;;11.30;99.90;;;;;;5013709;28;19920;-74
2022/07/11 12:36:40;;;;;;;;;;;11.20;99.90;;;;;;5013761;28;20364;-75
2022/07/11 12:39:07;;;;;;;;;;;11.20;99.90;;;;;;5013541;28;20000;-76
2022/07/11 12:41:34;;;;;;;;;;;11.20;99.90;;;;;;5013758;28;20314;-77
2022/07/11 12:46:48;;;;;;;;;;;11.20;99.90;;;;;;5014099;28;19920;-76
2022/07/11 12:49:17;;;;;;;;;;;11.20;99.90;;;;;;5013372;28;19909;-77
2022/07/11 12:51:45;;;;;;;;;;;11.10;99.90;;;;;;5013680;28;20012;-75
2022/07/11 12:54:12;;;;;;;;;;;11.10;99.90;;;;;;5013588;28;19944;-76
2022/07/11 12:56:39;;;;;;;;;;;11.10;99.90;;;;;;5013467;28;19996;-76
2022/07/11 12:59:06;;;;;;;;;;;11.10;99.90;;;;;;5013381;28;19910;-73
2022/07/11 13:01:33;;;;;;;;;;;11.10;99.90;;;;;;5013550;28;20413;-73
2022/07/11 13:04:00;;;;;;;;;;;11.00;99.90;;;;;;5013463;28;19956;-74
2022/07/11 13:09:15;;;;;;;;;;;11.00;99.90;;;;;;5014706;28;20438;-75
2022/07/11 13:11:41;;;;;;;;;;;11.00;99.90;;;;;;5017540;28;20356;-75
2022/07/11 13:15:08;;;;;;;;;;;11.00;99.90;;;;;;5017271;28;19910;-73
2022/07/11 13:16:54;;;;;;;;;;;11.00;99.90;;;;;;5017186;28;19910;-74
2022/07/11 13:19:21;;;;;;;;;;;11.00;99.90;;;;;;5017424;28;19917;-74
2022/07/11 13:21:49;;;;;;;;;;;11.00;99.90;;;;;;5017223;28;19909;-74
2022/07/11 13:24:15;;;;;;;;;;;11.00;99.90;;;;;;5017277;28;20259;-74
2022/07/11 13:26:42;;;;;;;;;;;11.00;99.90;;;;;;5017222;28;19914;-74
2022/07/11 13:29:09;;;;;;;;;;;11.00;99.90;;;;;;5016779;28;20344;-74
2022/07/11 13:31:35;;;;;;;;;;;10.90;99.90;;;;;;5017111;28;19917;-75
2022/07/11 13:34:03;;;;;;;;;;;10.90;99.90;;;;;;5017212;28;19920;-75
2022/07/11 13:36:29;;;;;;;;;;;10.90;99.90;;;;;;5017099;28;19996;-75
2022/07/11 13:38:56;;;;;;;;;;;10.90;99.90;;;;;;5016784;28;19909;-75
2022/07/11 13:41:23;;;;;;;;;;;10.90;99.90;;;;;;5016889;28;19937;-75
2022/07/11 13:43:50;;;;;;;;;;;10.90;99.90;;;;;;5016768;28;20004;-74
2022/07/11 13:46:18;;;;;;;;;;;10.80;99.90;;;;;;5017003;28;19909;-75
2022/07/11 13:48:45;;;;;;;;;;;10.80;99.90;;;;;;5016755;28;19916;-74
2022/07/11 13:51:12;;;;;;;;;;;10.90;99.90;;;;;;5016550;28;19943;-75
2022/07/11 13:53:39;;;;;;;;;;;10.80;99.90;;;;;;5016819;28;19910;-74
2022/07/11 13:56:06;;;;;;;;;;;10.80;99.90;;;;;;5016764;28;20008;-75
2022/07/11 13:58:33;;;;;;;;;;;10.80;99.90;;;;;;5016447;28;20354;-75
2022/07/11 14:00:59;;;;;;;;;;;10.80;99.90;;;;;;5016423;28;19984;-74
2022/07/11 14:03:26;;;;;;;;;;;10.80;99.90;;;;;;5016485;28;19909;-75
2022/07/11 14:05:53;;;;;;;;;;;10.80;99.90;;;;;;5016570;28;19984;-74
2022/07/11 14:08:19;;;;;;;;;;;10.80;99.90;;;;;;5016492;28;20028;-76
2022/07/11 14:10:46;;;;;;;;;;;10.80;99.90;;;;;;5016282;28;19917;-77
2022/07/11 14:13:13;;;;;;;;;;;10.80;99.90;;;;;;5016004;28;20319;-75
2022/07/11 14:15:40;;;;;;;;;;;10.80;99.90;;;;;;5016644;28;20275;-76
2022/07/11 14:18:07;;;;;;;;;;;10.90;99.90;;;;;;5016304;28;19956;-76
2022/07/11 14:20:34;;;;;;;;;;;10.80;99.90;;;;;;5015642;28;19910;-76
2022/07/11 14:23:01;;;;;;;;;;;10.90;99.90;;;;;;5015971;28;20267;-75
2022/07/11 14:25:27;;;;;;;;;;;10.90;99.90;;;;;;5016262;28;19936;-75
2022/07/11 14:27:54;;;;;;;;;;;10.90;99.90;;;;;;5016024;28;20000;-75
2022/07/11 14:30:21;;;;;;;;;;;10.80;99.90;;;;;;5016000;28;20402;-74
2022/07/11 14:32:48;;;;;;;;;;;10.80;99.90;;;;;;5015966;28;19909;-75
2022/07/11 14:35:14;;;;;;;;;;;10.70;99.90;;;;;;5015785;28;19910;-75
2022/07/11 14:37:41;;;;;;;;;;;10.70;99.90;;;;;;5015872;28;19909;-75
2022/07/11 14:40:08;;;;;;;;;;;10.70;99.90;;;;;;5015932;28;19917;-75